<?xml version="1.0" encoding="UTF-8" standalone="no" ?>
<gpx xmlns="http://www.topografix.com/GPX/1/1" xmlns:xsi="http://www.w3.org/2001/XMLSchema-instance" xsi:schemaLocation="http://www.topografix.com/GPX/1/1 http://www.topografix.com/GPX/1/1/gpx.xsd" version="1.1" creator="VisuGPX - https://www.visugpx.com">
  <metadata>
    <name>Trail 20km TS Dinant 2022</name>
    <desc><![CDATA[Trail au départ de Dinant ]]></desc>
  </metadata>
  <trk>
    <name><![CDATA[14215938-20km TS Dinant 2022]]></name>
    <trkseg>
      <trkpt lat="50.26075" lon="4.90999">
        <ele>97</ele>
        <time>2022-04-15T21:35:55Z</time>
      </trkpt>
      <trkpt lat="50.2602" lon="4.91047">
        <ele>99</ele>
        <time>2022-04-15T21:36:27Z</time>
      </trkpt>
      <trkpt lat="50.26023" lon="4.91059">
        <ele>98</ele>
        <time>2022-04-15T21:36:31Z</time>
      </trkpt>
      <trkpt lat="50.26048" lon="4.91192">
        <ele>99</ele>
        <time>2022-04-15T21:37:15Z</time>
      </trkpt>
      <trkpt lat="50.26057" lon="4.91207">
        <ele>99</ele>
        <time>2022-04-15T21:37:22Z</time>
      </trkpt>
      <trkpt lat="50.26065" lon="4.91211">
        <ele>100</ele>
        <time>2022-04-15T21:37:26Z</time>
      </trkpt>
      <trkpt lat="50.26079" lon="4.91211">
        <ele>101</ele>
        <time>2022-04-15T21:37:33Z</time>
      </trkpt>
      <trkpt lat="50.26096" lon="4.91196">
        <ele>102</ele>
        <time>2022-04-15T21:37:43Z</time>
      </trkpt>
      <trkpt lat="50.26081" lon="4.91161">
        <ele>100</ele>
        <time>2022-04-15T21:37:56Z</time>
      </trkpt>
      <trkpt lat="50.26063" lon="4.91177">
        <ele>99</ele>
        <time>2022-04-15T21:38:06Z</time>
      </trkpt>
      <trkpt lat="50.26038" lon="4.91197">
        <ele>98</ele>
        <time>2022-04-15T21:38:20Z</time>
      </trkpt>
      <trkpt lat="50.25885" lon="4.91257">
        <ele>93</ele>
        <time>2022-04-15T21:39:39Z</time>
      </trkpt>
      <trkpt lat="50.25838" lon="4.91273">
        <ele>93</ele>
        <time>2022-04-15T21:40:03Z</time>
      </trkpt>
      <trkpt lat="50.25737" lon="4.91303">
        <ele>92</ele>
        <time>2022-04-15T21:40:55Z</time>
      </trkpt>
      <trkpt lat="50.25701" lon="4.91316">
        <ele>92</ele>
        <time>2022-04-15T21:41:13Z</time>
      </trkpt>
      <trkpt lat="50.25708" lon="4.91328">
        <ele>92</ele>
        <time>2022-04-15T21:41:19Z</time>
      </trkpt>
      <trkpt lat="50.25698" lon="4.91331">
        <ele>92</ele>
        <time>2022-04-15T21:41:24Z</time>
      </trkpt>
      <trkpt lat="50.25642" lon="4.91386">
        <ele>92</ele>
        <time>2022-04-15T21:41:57Z</time>
      </trkpt>
      <trkpt lat="50.25656" lon="4.91396">
        <ele>92</ele>
        <time>2022-04-15T21:42:04Z</time>
      </trkpt>
      <trkpt lat="50.25671" lon="4.91446">
        <ele>94</ele>
        <time>2022-04-15T21:42:22Z</time>
      </trkpt>
      <trkpt lat="50.25705" lon="4.91529">
        <ele>97</ele>
        <time>2022-04-15T21:42:54Z</time>
      </trkpt>
      <trkpt lat="50.25691" lon="4.91546">
        <ele>96</ele>
        <time>2022-04-15T21:43:03Z</time>
      </trkpt>
      <trkpt lat="50.25725" lon="4.9163">
        <ele>105</ele>
        <time>2022-04-15T21:43:34Z</time>
      </trkpt>
      <trkpt lat="50.25734" lon="4.91653">
        <ele>110</ele>
        <time>2022-04-15T21:43:43Z</time>
      </trkpt>
      <trkpt lat="50.25721" lon="4.91685">
        <ele>116</ele>
        <time>2022-04-15T21:43:55Z</time>
      </trkpt>
      <trkpt lat="50.25706" lon="4.91703">
        <ele>120</ele>
        <time>2022-04-15T21:44:05Z</time>
      </trkpt>
      <trkpt lat="50.25682" lon="4.91722">
        <ele>121</ele>
        <time>2022-04-15T21:44:18Z</time>
      </trkpt>
      <trkpt lat="50.25657" lon="4.91735">
        <ele>120</ele>
        <time>2022-04-15T21:44:31Z</time>
      </trkpt>
      <trkpt lat="50.25646" lon="4.91743">
        <ele>121</ele>
        <time>2022-04-15T21:44:37Z</time>
      </trkpt>
      <trkpt lat="50.2564" lon="4.9175">
        <ele>122</ele>
        <time>2022-04-15T21:44:41Z</time>
      </trkpt>
      <trkpt lat="50.25638" lon="4.91755">
        <ele>124</ele>
        <time>2022-04-15T21:44:43Z</time>
      </trkpt>
      <trkpt lat="50.25641" lon="4.91762">
        <ele>128</ele>
        <time>2022-04-15T21:44:46Z</time>
      </trkpt>
      <trkpt lat="50.2565" lon="4.91764">
        <ele>130</ele>
        <time>2022-04-15T21:44:50Z</time>
      </trkpt>
      <trkpt lat="50.25697" lon="4.91784">
        <ele>146</ele>
        <time>2022-04-15T21:45:15Z</time>
      </trkpt>
      <trkpt lat="50.25702" lon="4.91792">
        <ele>150</ele>
        <time>2022-04-15T21:45:18Z</time>
      </trkpt>
      <trkpt lat="50.25708" lon="4.91799">
        <ele>154</ele>
        <time>2022-04-15T21:45:22Z</time>
      </trkpt>
      <trkpt lat="50.25714" lon="4.91812">
        <ele>159</ele>
        <time>2022-04-15T21:45:27Z</time>
      </trkpt>
      <trkpt lat="50.25701" lon="4.91824">
        <ele>162</ele>
        <time>2022-04-15T21:45:35Z</time>
      </trkpt>
      <trkpt lat="50.25715" lon="4.91837">
        <ele>167</ele>
        <time>2022-04-15T21:45:43Z</time>
      </trkpt>
      <trkpt lat="50.25721" lon="4.9185">
        <ele>171</ele>
        <time>2022-04-15T21:45:48Z</time>
      </trkpt>
      <trkpt lat="50.25714" lon="4.91867">
        <ele>174</ele>
        <time>2022-04-15T21:45:54Z</time>
      </trkpt>
      <trkpt lat="50.25714" lon="4.91887">
        <ele>179</ele>
        <time>2022-04-15T21:46:01Z</time>
      </trkpt>
      <trkpt lat="50.25716" lon="4.91895">
        <ele>181</ele>
        <time>2022-04-15T21:46:03Z</time>
      </trkpt>
      <trkpt lat="50.25722" lon="4.91892">
        <ele>180</ele>
        <time>2022-04-15T21:46:07Z</time>
      </trkpt>
      <trkpt lat="50.25729" lon="4.91884">
        <ele>178</ele>
        <time>2022-04-15T21:46:11Z</time>
      </trkpt>
      <trkpt lat="50.25744" lon="4.91853">
        <ele>172</ele>
        <time>2022-04-15T21:46:23Z</time>
      </trkpt>
      <trkpt lat="50.25763" lon="4.91843">
        <ele>172</ele>
        <time>2022-04-15T21:46:33Z</time>
      </trkpt>
      <trkpt lat="50.25769" lon="4.91826">
        <ele>170</ele>
        <time>2022-04-15T21:46:40Z</time>
      </trkpt>
      <trkpt lat="50.25781" lon="4.91815">
        <ele>169</ele>
        <time>2022-04-15T21:46:47Z</time>
      </trkpt>
      <trkpt lat="50.2579" lon="4.91817">
        <ele>171</ele>
        <time>2022-04-15T21:46:51Z</time>
      </trkpt>
      <trkpt lat="50.258" lon="4.91836">
        <ele>176</ele>
        <time>2022-04-15T21:46:59Z</time>
      </trkpt>
      <trkpt lat="50.25816" lon="4.9185">
        <ele>179</ele>
        <time>2022-04-15T21:47:08Z</time>
      </trkpt>
      <trkpt lat="50.25778" lon="4.91867">
        <ele>178</ele>
        <time>2022-04-15T21:47:28Z</time>
      </trkpt>
      <trkpt lat="50.25743" lon="4.91953">
        <ele>188</ele>
        <time>2022-04-15T21:48:01Z</time>
      </trkpt>
      <trkpt lat="50.25727" lon="4.91978">
        <ele>191</ele>
        <time>2022-04-15T21:48:12Z</time>
      </trkpt>
      <trkpt lat="50.25705" lon="4.91971">
        <ele>191</ele>
        <time>2022-04-15T21:48:23Z</time>
      </trkpt>
      <trkpt lat="50.25671" lon="4.91925">
        <ele>188</ele>
        <time>2022-04-15T21:48:46Z</time>
      </trkpt>
      <trkpt lat="50.25655" lon="4.91918">
        <ele>187</ele>
        <time>2022-04-15T21:48:54Z</time>
      </trkpt>
      <trkpt lat="50.25632" lon="4.91912">
        <ele>186</ele>
        <time>2022-04-15T21:49:06Z</time>
      </trkpt>
      <trkpt lat="50.25611" lon="4.91912">
        <ele>187</ele>
        <time>2022-04-15T21:49:16Z</time>
      </trkpt>
      <trkpt lat="50.25577" lon="4.91933">
        <ele>190</ele>
        <time>2022-04-15T21:49:34Z</time>
      </trkpt>
      <trkpt lat="50.25543" lon="4.91951">
        <ele>189</ele>
        <time>2022-04-15T21:49:52Z</time>
      </trkpt>
      <trkpt lat="50.25521" lon="4.91967">
        <ele>190</ele>
        <time>2022-04-15T21:50:05Z</time>
      </trkpt>
      <trkpt lat="50.2549" lon="4.91986">
        <ele>191</ele>
        <time>2022-04-15T21:50:21Z</time>
      </trkpt>
      <trkpt lat="50.25437" lon="4.91994">
        <ele>185</ele>
        <time>2022-04-15T21:50:48Z</time>
      </trkpt>
      <trkpt lat="50.25406" lon="4.91993">
        <ele>180</ele>
        <time>2022-04-15T21:51:03Z</time>
      </trkpt>
      <trkpt lat="50.25394" lon="4.92004">
        <ele>178</ele>
        <time>2022-04-15T21:51:10Z</time>
      </trkpt>
      <trkpt lat="50.25372" lon="4.92065">
        <ele>178</ele>
        <time>2022-04-15T21:51:33Z</time>
      </trkpt>
      <trkpt lat="50.25371" lon="4.92103">
        <ele>182</ele>
        <time>2022-04-15T21:51:45Z</time>
      </trkpt>
      <trkpt lat="50.25367" lon="4.92124">
        <ele>182</ele>
        <time>2022-04-15T21:51:52Z</time>
      </trkpt>
      <trkpt lat="50.2533" lon="4.92157">
        <ele>178</ele>
        <time>2022-04-15T21:52:13Z</time>
      </trkpt>
      <trkpt lat="50.25321" lon="4.92123">
        <ele>176</ele>
        <time>2022-04-15T21:52:25Z</time>
      </trkpt>
      <trkpt lat="50.25317" lon="4.92099">
        <ele>175</ele>
        <time>2022-04-15T21:52:33Z</time>
      </trkpt>
      <trkpt lat="50.25302" lon="4.92084">
        <ele>175</ele>
        <time>2022-04-15T21:52:42Z</time>
      </trkpt>
      <trkpt lat="50.25293" lon="4.92079">
        <ele>176</ele>
        <time>2022-04-15T21:52:47Z</time>
      </trkpt>
      <trkpt lat="50.25286" lon="4.9208">
        <ele>177</ele>
        <time>2022-04-15T21:52:50Z</time>
      </trkpt>
      <trkpt lat="50.2528" lon="4.92083">
        <ele>178</ele>
        <time>2022-04-15T21:52:53Z</time>
      </trkpt>
      <trkpt lat="50.25275" lon="4.9209">
        <ele>179</ele>
        <time>2022-04-15T21:52:57Z</time>
      </trkpt>
      <trkpt lat="50.25273" lon="4.92096">
        <ele>180</ele>
        <time>2022-04-15T21:52:59Z</time>
      </trkpt>
      <trkpt lat="50.25274" lon="4.92114">
        <ele>182</ele>
        <time>2022-04-15T21:53:05Z</time>
      </trkpt>
      <trkpt lat="50.25277" lon="4.92122">
        <ele>182</ele>
        <time>2022-04-15T21:53:08Z</time>
      </trkpt>
      <trkpt lat="50.25295" lon="4.92147">
        <ele>182</ele>
        <time>2022-04-15T21:53:20Z</time>
      </trkpt>
      <trkpt lat="50.25298" lon="4.92156">
        <ele>182</ele>
        <time>2022-04-15T21:53:23Z</time>
      </trkpt>
      <trkpt lat="50.25298" lon="4.9219">
        <ele>186</ele>
        <time>2022-04-15T21:53:34Z</time>
      </trkpt>
      <trkpt lat="50.25296" lon="4.92199">
        <ele>187</ele>
        <time>2022-04-15T21:53:37Z</time>
      </trkpt>
      <trkpt lat="50.25283" lon="4.92215">
        <ele>190</ele>
        <time>2022-04-15T21:53:45Z</time>
      </trkpt>
      <trkpt lat="50.25266" lon="4.9224">
        <ele>195</ele>
        <time>2022-04-15T21:53:57Z</time>
      </trkpt>
      <trkpt lat="50.25261" lon="4.92252">
        <ele>196</ele>
        <time>2022-04-15T21:54:01Z</time>
      </trkpt>
      <trkpt lat="50.25259" lon="4.92266">
        <ele>197</ele>
        <time>2022-04-15T21:54:06Z</time>
      </trkpt>
      <trkpt lat="50.25249" lon="4.92285">
        <ele>199</ele>
        <time>2022-04-15T21:54:14Z</time>
      </trkpt>
      <trkpt lat="50.25241" lon="4.92292">
        <ele>200</ele>
        <time>2022-04-15T21:54:18Z</time>
      </trkpt>
      <trkpt lat="50.25205" lon="4.92306">
        <ele>203</ele>
        <time>2022-04-15T21:54:37Z</time>
      </trkpt>
      <trkpt lat="50.25152" lon="4.92417">
        <ele>216</ele>
        <time>2022-04-15T21:55:21Z</time>
      </trkpt>
      <trkpt lat="50.25098" lon="4.92521">
        <ele>227</ele>
        <time>2022-04-15T21:56:04Z</time>
      </trkpt>
      <trkpt lat="50.25081" lon="4.9256">
        <ele>230</ele>
        <time>2022-04-15T21:56:19Z</time>
      </trkpt>
      <trkpt lat="50.25061" lon="4.92598">
        <ele>232</ele>
        <time>2022-04-15T21:56:35Z</time>
      </trkpt>
      <trkpt lat="50.25021" lon="4.92554">
        <ele>232</ele>
        <time>2022-04-15T21:56:59Z</time>
      </trkpt>
      <trkpt lat="50.24998" lon="4.92546">
        <ele>232</ele>
        <time>2022-04-15T21:57:11Z</time>
      </trkpt>
      <trkpt lat="50.24988" lon="4.92547">
        <ele>231</ele>
        <time>2022-04-15T21:57:16Z</time>
      </trkpt>
      <trkpt lat="50.2498" lon="4.92551">
        <ele>230</ele>
        <time>2022-04-15T21:57:20Z</time>
      </trkpt>
      <trkpt lat="50.24953" lon="4.92536">
        <ele>226</ele>
        <time>2022-04-15T21:57:35Z</time>
      </trkpt>
      <trkpt lat="50.24909" lon="4.92519">
        <ele>218</ele>
        <time>2022-04-15T21:57:57Z</time>
      </trkpt>
      <trkpt lat="50.2488" lon="4.92523">
        <ele>214</ele>
        <time>2022-04-15T21:58:12Z</time>
      </trkpt>
      <trkpt lat="50.24828" lon="4.92539">
        <ele>207</ele>
        <time>2022-04-15T21:58:39Z</time>
      </trkpt>
      <trkpt lat="50.24784" lon="4.92557">
        <ele>207</ele>
        <time>2022-04-15T21:59:01Z</time>
      </trkpt>
      <trkpt lat="50.24771" lon="4.92645">
        <ele>209</ele>
        <time>2022-04-15T21:59:30Z</time>
      </trkpt>
      <trkpt lat="50.24714" lon="4.92605">
        <ele>206</ele>
        <time>2022-04-15T22:00:01Z</time>
      </trkpt>
      <trkpt lat="50.24686" lon="4.9258">
        <ele>204</ele>
        <time>2022-04-15T22:00:18Z</time>
      </trkpt>
      <trkpt lat="50.24583" lon="4.92513">
        <ele>205</ele>
        <time>2022-04-15T22:01:13Z</time>
      </trkpt>
      <trkpt lat="50.24565" lon="4.92505">
        <ele>203</ele>
        <time>2022-04-15T22:01:23Z</time>
      </trkpt>
      <trkpt lat="50.24547" lon="4.925">
        <ele>202</ele>
        <time>2022-04-15T22:01:32Z</time>
      </trkpt>
      <trkpt lat="50.24533" lon="4.92517">
        <ele>198</ele>
        <time>2022-04-15T22:01:41Z</time>
      </trkpt>
      <trkpt lat="50.24506" lon="4.92499">
        <ele>199</ele>
        <time>2022-04-15T22:01:56Z</time>
      </trkpt>
      <trkpt lat="50.24495" lon="4.92473">
        <ele>199</ele>
        <time>2022-04-15T22:02:05Z</time>
      </trkpt>
      <trkpt lat="50.24481" lon="4.92476">
        <ele>191</ele>
        <time>2022-04-15T22:02:13Z</time>
      </trkpt>
      <trkpt lat="50.24477" lon="4.92505">
        <ele>186</ele>
        <time>2022-04-15T22:02:22Z</time>
      </trkpt>
      <trkpt lat="50.24447" lon="4.92483">
        <ele>173</ele>
        <time>2022-04-15T22:02:39Z</time>
      </trkpt>
      <trkpt lat="50.24433" lon="4.92458">
        <ele>168</ele>
        <time>2022-04-15T22:02:49Z</time>
      </trkpt>
      <trkpt lat="50.24427" lon="4.92415">
        <ele>168</ele>
        <time>2022-04-15T22:03:03Z</time>
      </trkpt>
      <trkpt lat="50.24421" lon="4.92442">
        <ele>163</ele>
        <time>2022-04-15T22:03:12Z</time>
      </trkpt>
      <trkpt lat="50.24419" lon="4.92413">
        <ele>163</ele>
        <time>2022-04-15T22:03:22Z</time>
      </trkpt>
      <trkpt lat="50.24409" lon="4.92434">
        <ele>157</ele>
        <time>2022-04-15T22:03:30Z</time>
      </trkpt>
      <trkpt lat="50.24405" lon="4.92398">
        <ele>155</ele>
        <time>2022-04-15T22:03:42Z</time>
      </trkpt>
      <trkpt lat="50.24392" lon="4.92478">
        <ele>147</ele>
        <time>2022-04-15T22:04:08Z</time>
      </trkpt>
      <trkpt lat="50.24385" lon="4.92462">
        <ele>144</ele>
        <time>2022-04-15T22:04:15Z</time>
      </trkpt>
      <trkpt lat="50.2438" lon="4.92441">
        <ele>142</ele>
        <time>2022-04-15T22:04:22Z</time>
      </trkpt>
      <trkpt lat="50.24371" lon="4.92384">
        <ele>136</ele>
        <time>2022-04-15T22:04:40Z</time>
      </trkpt>
      <trkpt lat="50.24364" lon="4.92312">
        <ele>126</ele>
        <time>2022-04-15T22:05:04Z</time>
      </trkpt>
      <trkpt lat="50.24362" lon="4.92311">
        <ele>125</ele>
        <time>2022-04-15T22:05:05Z</time>
      </trkpt>
      <trkpt lat="50.24357" lon="4.92333">
        <ele>126</ele>
        <time>2022-04-15T22:05:12Z</time>
      </trkpt>
      <trkpt lat="50.24347" lon="4.92384">
        <ele>123</ele>
        <time>2022-04-15T22:05:29Z</time>
      </trkpt>
      <trkpt lat="50.24341" lon="4.92424">
        <ele>121</ele>
        <time>2022-04-15T22:05:43Z</time>
      </trkpt>
      <trkpt lat="50.24339" lon="4.92424">
        <ele>120</ele>
        <time>2022-04-15T22:05:44Z</time>
      </trkpt>
      <trkpt lat="50.24336" lon="4.92402">
        <ele>118</ele>
        <time>2022-04-15T22:05:51Z</time>
      </trkpt>
      <trkpt lat="50.24332" lon="4.92361">
        <ele>115</ele>
        <time>2022-04-15T22:06:04Z</time>
      </trkpt>
      <trkpt lat="50.2433" lon="4.92351">
        <ele>115</ele>
        <time>2022-04-15T22:06:07Z</time>
      </trkpt>
      <trkpt lat="50.24329" lon="4.92331">
        <ele>114</ele>
        <time>2022-04-15T22:06:14Z</time>
      </trkpt>
      <trkpt lat="50.24323" lon="4.9233">
        <ele>115</ele>
        <time>2022-04-15T22:06:17Z</time>
      </trkpt>
      <trkpt lat="50.24325" lon="4.9241">
        <ele>119</ele>
        <time>2022-04-15T22:06:42Z</time>
      </trkpt>
      <trkpt lat="50.24324" lon="4.92585">
        <ele>121</ele>
        <time>2022-04-15T22:07:38Z</time>
      </trkpt>
      <trkpt lat="50.24331" lon="4.92609">
        <ele>123</ele>
        <time>2022-04-15T22:07:47Z</time>
      </trkpt>
      <trkpt lat="50.24376" lon="4.92681">
        <ele>131</ele>
        <time>2022-04-15T22:08:19Z</time>
      </trkpt>
      <trkpt lat="50.24402" lon="4.92732">
        <ele>131</ele>
        <time>2022-04-15T22:08:40Z</time>
      </trkpt>
      <trkpt lat="50.2435" lon="4.92719">
        <ele>143</ele>
        <time>2022-04-15T22:09:06Z</time>
      </trkpt>
      <trkpt lat="50.2431" lon="4.92676">
        <ele>145</ele>
        <time>2022-04-15T22:09:31Z</time>
      </trkpt>
      <trkpt lat="50.24262" lon="4.92595">
        <ele>145</ele>
        <time>2022-04-15T22:10:06Z</time>
      </trkpt>
      <trkpt lat="50.24241" lon="4.9253">
        <ele>148</ele>
        <time>2022-04-15T22:10:29Z</time>
      </trkpt>
      <trkpt lat="50.24226" lon="4.92449">
        <ele>150</ele>
        <time>2022-04-15T22:10:56Z</time>
      </trkpt>
      <trkpt lat="50.24192" lon="4.92325">
        <ele>153</ele>
        <time>2022-04-15T22:11:39Z</time>
      </trkpt>
      <trkpt lat="50.24172" lon="4.92289">
        <ele>154</ele>
        <time>2022-04-15T22:11:55Z</time>
      </trkpt>
      <trkpt lat="50.24161" lon="4.92282">
        <ele>155</ele>
        <time>2022-04-15T22:12:01Z</time>
      </trkpt>
      <trkpt lat="50.24153" lon="4.92283">
        <ele>155</ele>
        <time>2022-04-15T22:12:05Z</time>
      </trkpt>
      <trkpt lat="50.24144" lon="4.92297">
        <ele>158</ele>
        <time>2022-04-15T22:12:11Z</time>
      </trkpt>
      <trkpt lat="50.24139" lon="4.92295">
        <ele>157</ele>
        <time>2022-04-15T22:12:14Z</time>
      </trkpt>
      <trkpt lat="50.24132" lon="4.92299">
        <ele>158</ele>
        <time>2022-04-15T22:12:17Z</time>
      </trkpt>
      <trkpt lat="50.24092" lon="4.92331">
        <ele>163</ele>
        <time>2022-04-15T22:12:40Z</time>
      </trkpt>
      <trkpt lat="50.24053" lon="4.92359">
        <ele>168</ele>
        <time>2022-04-15T22:13:01Z</time>
      </trkpt>
      <trkpt lat="50.24046" lon="4.92323">
        <ele>166</ele>
        <time>2022-04-15T22:13:13Z</time>
      </trkpt>
      <trkpt lat="50.24044" lon="4.92304">
        <ele>165</ele>
        <time>2022-04-15T22:13:19Z</time>
      </trkpt>
      <trkpt lat="50.24044" lon="4.9228">
        <ele>164</ele>
        <time>2022-04-15T22:13:27Z</time>
      </trkpt>
      <trkpt lat="50.24039" lon="4.92261">
        <ele>164</ele>
        <time>2022-04-15T22:13:34Z</time>
      </trkpt>
      <trkpt lat="50.24004" lon="4.92232">
        <ele>176</ele>
        <time>2022-04-15T22:13:54Z</time>
      </trkpt>
      <trkpt lat="50.23991" lon="4.92244">
        <ele>180</ele>
        <time>2022-04-15T22:14:01Z</time>
      </trkpt>
      <trkpt lat="50.23965" lon="4.92306">
        <ele>183</ele>
        <time>2022-04-15T22:14:25Z</time>
      </trkpt>
      <trkpt lat="50.23942" lon="4.92381">
        <ele>183</ele>
        <time>2022-04-15T22:14:51Z</time>
      </trkpt>
      <trkpt lat="50.23929" lon="4.92432">
        <ele>181</ele>
        <time>2022-04-15T22:15:09Z</time>
      </trkpt>
      <trkpt lat="50.23913" lon="4.92527">
        <ele>182</ele>
        <time>2022-04-15T22:15:40Z</time>
      </trkpt>
      <trkpt lat="50.2389" lon="4.92623">
        <ele>186</ele>
        <time>2022-04-15T22:16:13Z</time>
      </trkpt>
      <trkpt lat="50.23879" lon="4.92658">
        <ele>189</ele>
        <time>2022-04-15T22:16:26Z</time>
      </trkpt>
      <trkpt lat="50.23838" lon="4.92829">
        <ele>199</ele>
        <time>2022-04-15T22:17:24Z</time>
      </trkpt>
      <trkpt lat="50.23697" lon="4.93082">
        <ele>224</ele>
        <time>2022-04-15T22:19:12Z</time>
      </trkpt>
      <trkpt lat="50.23612" lon="4.93202">
        <ele>234</ele>
        <time>2022-04-15T22:20:09Z</time>
      </trkpt>
      <trkpt lat="50.23563" lon="4.93241">
        <ele>237</ele>
        <time>2022-04-15T22:20:36Z</time>
      </trkpt>
      <trkpt lat="50.23563" lon="4.93239">
        <ele>236</ele>
        <time>2022-04-15T22:20:37Z</time>
      </trkpt>
      <trkpt lat="50.23553" lon="4.9326">
        <ele>236</ele>
        <time>2022-04-15T22:20:45Z</time>
      </trkpt>
      <trkpt lat="50.23517" lon="4.93326">
        <ele>237</ele>
        <time>2022-04-15T22:21:13Z</time>
      </trkpt>
      <trkpt lat="50.23473" lon="4.93294">
        <ele>232</ele>
        <time>2022-04-15T22:21:38Z</time>
      </trkpt>
      <trkpt lat="50.23411" lon="4.93241">
        <ele>224</ele>
        <time>2022-04-15T22:22:13Z</time>
      </trkpt>
      <trkpt lat="50.23318" lon="4.93149">
        <ele>214</ele>
        <time>2022-04-15T22:23:08Z</time>
      </trkpt>
      <trkpt lat="50.23181" lon="4.92991">
        <ele>199</ele>
        <time>2022-04-15T22:24:33Z</time>
      </trkpt>
      <trkpt lat="50.23172" lon="4.92925">
        <ele>199</ele>
        <time>2022-04-15T22:24:55Z</time>
      </trkpt>
      <trkpt lat="50.23124" lon="4.92855">
        <ele>200</ele>
        <time>2022-04-15T22:25:28Z</time>
      </trkpt>
      <trkpt lat="50.23096" lon="4.9279">
        <ele>201</ele>
        <time>2022-04-15T22:25:53Z</time>
      </trkpt>
      <trkpt lat="50.23066" lon="4.92736">
        <ele>203</ele>
        <time>2022-04-15T22:26:16Z</time>
      </trkpt>
      <trkpt lat="50.23055" lon="4.92726">
        <ele>203</ele>
        <time>2022-04-15T22:26:22Z</time>
      </trkpt>
      <trkpt lat="50.23043" lon="4.92733">
        <ele>203</ele>
        <time>2022-04-15T22:26:28Z</time>
      </trkpt>
      <trkpt lat="50.23051" lon="4.92717">
        <ele>204</ele>
        <time>2022-04-15T22:26:35Z</time>
      </trkpt>
      <trkpt lat="50.23043" lon="4.92733">
        <ele>203</ele>
        <time>2022-04-15T22:26:41Z</time>
      </trkpt>
      <trkpt lat="50.23032" lon="4.92744">
        <ele>203</ele>
        <time>2022-04-15T22:26:48Z</time>
      </trkpt>
      <trkpt lat="50.22976" lon="4.9266">
        <ele>201</ele>
        <time>2022-04-15T22:27:27Z</time>
      </trkpt>
      <trkpt lat="50.2296" lon="4.92627">
        <ele>200</ele>
        <time>2022-04-15T22:27:40Z</time>
      </trkpt>
      <trkpt lat="50.22945" lon="4.92616">
        <ele>199</ele>
        <time>2022-04-15T22:27:48Z</time>
      </trkpt>
      <trkpt lat="50.22934" lon="4.9259">
        <ele>198</ele>
        <time>2022-04-15T22:27:58Z</time>
      </trkpt>
      <trkpt lat="50.22838" lon="4.92536">
        <ele>185</ele>
        <time>2022-04-15T22:28:49Z</time>
      </trkpt>
      <trkpt lat="50.2282" lon="4.92535">
        <ele>183</ele>
        <time>2022-04-15T22:28:58Z</time>
      </trkpt>
      <trkpt lat="50.22816" lon="4.92548">
        <ele>181</ele>
        <time>2022-04-15T22:29:03Z</time>
      </trkpt>
      <trkpt lat="50.22793" lon="4.92512">
        <ele>180</ele>
        <time>2022-04-15T22:29:19Z</time>
      </trkpt>
      <trkpt lat="50.22774" lon="4.92485">
        <ele>179</ele>
        <time>2022-04-15T22:29:32Z</time>
      </trkpt>
      <trkpt lat="50.22749" lon="4.92464">
        <ele>177</ele>
        <time>2022-04-15T22:29:46Z</time>
      </trkpt>
      <trkpt lat="50.227" lon="4.92429">
        <ele>174</ele>
        <time>2022-04-15T22:30:13Z</time>
      </trkpt>
      <trkpt lat="50.22685" lon="4.92387">
        <ele>173</ele>
        <time>2022-04-15T22:30:29Z</time>
      </trkpt>
      <trkpt lat="50.22671" lon="4.92385">
        <ele>171</ele>
        <time>2022-04-15T22:30:36Z</time>
      </trkpt>
      <trkpt lat="50.22658" lon="4.92336">
        <ele>171</ele>
        <time>2022-04-15T22:30:53Z</time>
      </trkpt>
      <trkpt lat="50.22646" lon="4.92305">
        <ele>172</ele>
        <time>2022-04-15T22:31:04Z</time>
      </trkpt>
      <trkpt lat="50.22638" lon="4.92245">
        <ele>177</ele>
        <time>2022-04-15T22:31:24Z</time>
      </trkpt>
      <trkpt lat="50.22634" lon="4.92231">
        <ele>178</ele>
        <time>2022-04-15T22:31:29Z</time>
      </trkpt>
      <trkpt lat="50.22626" lon="4.92173">
        <ele>182</ele>
        <time>2022-04-15T22:31:48Z</time>
      </trkpt>
      <trkpt lat="50.22617" lon="4.9215">
        <ele>181</ele>
        <time>2022-04-15T22:31:56Z</time>
      </trkpt>
      <trkpt lat="50.22602" lon="4.92091">
        <ele>183</ele>
        <time>2022-04-15T22:32:17Z</time>
      </trkpt>
      <trkpt lat="50.22592" lon="4.92062">
        <ele>185</ele>
        <time>2022-04-15T22:32:27Z</time>
      </trkpt>
      <trkpt lat="50.2256" lon="4.91982">
        <ele>185</ele>
        <time>2022-04-15T22:32:58Z</time>
      </trkpt>
      <trkpt lat="50.22545" lon="4.91911">
        <ele>188</ele>
        <time>2022-04-15T22:33:21Z</time>
      </trkpt>
      <trkpt lat="50.22543" lon="4.91867">
        <ele>190</ele>
        <time>2022-04-15T22:33:36Z</time>
      </trkpt>
      <trkpt lat="50.22547" lon="4.91841">
        <ele>192</ele>
        <time>2022-04-15T22:33:44Z</time>
      </trkpt>
      <trkpt lat="50.22549" lon="4.91827">
        <ele>192</ele>
        <time>2022-04-15T22:33:49Z</time>
      </trkpt>
      <trkpt lat="50.2256" lon="4.91797">
        <ele>191</ele>
        <time>2022-04-15T22:34:00Z</time>
      </trkpt>
      <trkpt lat="50.22569" lon="4.91789">
        <ele>191</ele>
        <time>2022-04-15T22:34:05Z</time>
      </trkpt>
      <trkpt lat="50.22583" lon="4.9178">
        <ele>190</ele>
        <time>2022-04-15T22:34:13Z</time>
      </trkpt>
      <trkpt lat="50.22603" lon="4.91778">
        <ele>192</ele>
        <time>2022-04-15T22:34:23Z</time>
      </trkpt>
      <trkpt lat="50.22686" lon="4.91853">
        <ele>207</ele>
        <time>2022-04-15T22:35:11Z</time>
      </trkpt>
      <trkpt lat="50.22783" lon="4.91883">
        <ele>215</ele>
        <time>2022-04-15T22:36:00Z</time>
      </trkpt>
      <trkpt lat="50.22927" lon="4.91804">
        <ele>217</ele>
        <time>2022-04-15T22:37:16Z</time>
      </trkpt>
      <trkpt lat="50.2296" lon="4.91783">
        <ele>219</ele>
        <time>2022-04-15T22:37:34Z</time>
      </trkpt>
      <trkpt lat="50.23015" lon="4.91754">
        <ele>223</ele>
        <time>2022-04-15T22:38:03Z</time>
      </trkpt>
      <trkpt lat="50.23024" lon="4.91752">
        <ele>223</ele>
        <time>2022-04-15T22:38:08Z</time>
      </trkpt>
      <trkpt lat="50.23041" lon="4.9176">
        <ele>224</ele>
        <time>2022-04-15T22:38:17Z</time>
      </trkpt>
      <trkpt lat="50.23097" lon="4.9182">
        <ele>223</ele>
        <time>2022-04-15T22:38:51Z</time>
      </trkpt>
      <trkpt lat="50.23109" lon="4.91825">
        <ele>223</ele>
        <time>2022-04-15T22:38:57Z</time>
      </trkpt>
      <trkpt lat="50.23122" lon="4.91826">
        <ele>224</ele>
        <time>2022-04-15T22:39:03Z</time>
      </trkpt>
      <trkpt lat="50.2313" lon="4.91821">
        <ele>224</ele>
        <time>2022-04-15T22:39:08Z</time>
      </trkpt>
      <trkpt lat="50.2318" lon="4.91787">
        <ele>227</ele>
        <time>2022-04-15T22:39:35Z</time>
      </trkpt>
      <trkpt lat="50.23188" lon="4.91783">
        <ele>227</ele>
        <time>2022-04-15T22:39:39Z</time>
      </trkpt>
      <trkpt lat="50.23197" lon="4.91795">
        <ele>227</ele>
        <time>2022-04-15T22:39:45Z</time>
      </trkpt>
      <trkpt lat="50.2321" lon="4.91799">
        <ele>227</ele>
        <time>2022-04-15T22:39:52Z</time>
      </trkpt>
      <trkpt lat="50.2326" lon="4.91775">
        <ele>229</ele>
        <time>2022-04-15T22:40:18Z</time>
      </trkpt>
      <trkpt lat="50.23285" lon="4.91767">
        <ele>229</ele>
        <time>2022-04-15T22:40:31Z</time>
      </trkpt>
      <trkpt lat="50.23319" lon="4.91762">
        <ele>228</ele>
        <time>2022-04-15T22:40:48Z</time>
      </trkpt>
      <trkpt lat="50.23343" lon="4.91767">
        <ele>225</ele>
        <time>2022-04-15T22:41:00Z</time>
      </trkpt>
      <trkpt lat="50.2338" lon="4.91783">
        <ele>219</ele>
        <time>2022-04-15T22:41:19Z</time>
      </trkpt>
      <trkpt lat="50.23406" lon="4.91799">
        <ele>215</ele>
        <time>2022-04-15T22:41:33Z</time>
      </trkpt>
      <trkpt lat="50.23445" lon="4.91832">
        <ele>211</ele>
        <time>2022-04-15T22:41:55Z</time>
      </trkpt>
      <trkpt lat="50.23472" lon="4.91858">
        <ele>209</ele>
        <time>2022-04-15T22:42:11Z</time>
      </trkpt>
      <trkpt lat="50.23521" lon="4.9191">
        <ele>209</ele>
        <time>2022-04-15T22:42:41Z</time>
      </trkpt>
      <trkpt lat="50.23529" lon="4.91913">
        <ele>209</ele>
        <time>2022-04-15T22:42:45Z</time>
      </trkpt>
      <trkpt lat="50.23534" lon="4.91909">
        <ele>208</ele>
        <time>2022-04-15T22:42:48Z</time>
      </trkpt>
      <trkpt lat="50.23536" lon="4.91925">
        <ele>209</ele>
        <time>2022-04-15T22:42:53Z</time>
      </trkpt>
      <trkpt lat="50.23545" lon="4.91902">
        <ele>207</ele>
        <time>2022-04-15T22:43:02Z</time>
      </trkpt>
      <trkpt lat="50.23556" lon="4.91851">
        <ele>200</ele>
        <time>2022-04-15T22:43:19Z</time>
      </trkpt>
      <trkpt lat="50.23565" lon="4.91792">
        <ele>193</ele>
        <time>2022-04-15T22:43:38Z</time>
      </trkpt>
      <trkpt lat="50.23572" lon="4.91737">
        <ele>188</ele>
        <time>2022-04-15T22:43:56Z</time>
      </trkpt>
      <trkpt lat="50.23584" lon="4.91597">
        <ele>180</ele>
        <time>2022-04-15T22:44:41Z</time>
      </trkpt>
      <trkpt lat="50.23583" lon="4.91555">
        <ele>177</ele>
        <time>2022-04-15T22:44:55Z</time>
      </trkpt>
      <trkpt lat="50.23573" lon="4.91474">
        <ele>172</ele>
        <time>2022-04-15T22:45:21Z</time>
      </trkpt>
      <trkpt lat="50.23558" lon="4.91384">
        <ele>167</ele>
        <time>2022-04-15T22:45:51Z</time>
      </trkpt>
      <trkpt lat="50.23586" lon="4.91294">
        <ele>156</ele>
        <time>2022-04-15T22:46:23Z</time>
      </trkpt>
      <trkpt lat="50.23609" lon="4.91243">
        <ele>146</ele>
        <time>2022-04-15T22:46:43Z</time>
      </trkpt>
      <trkpt lat="50.23623" lon="4.91194">
        <ele>139</ele>
        <time>2022-04-15T22:47:00Z</time>
      </trkpt>
      <trkpt lat="50.23623" lon="4.91186">
        <ele>139</ele>
        <time>2022-04-15T22:47:03Z</time>
      </trkpt>
      <trkpt lat="50.23625" lon="4.91186">
        <ele>138</ele>
        <time>2022-04-15T22:47:04Z</time>
      </trkpt>
      <trkpt lat="50.23629" lon="4.91169">
        <ele>137</ele>
        <time>2022-04-15T22:47:10Z</time>
      </trkpt>
      <trkpt lat="50.23637" lon="4.91156">
        <ele>136</ele>
        <time>2022-04-15T22:47:15Z</time>
      </trkpt>
      <trkpt lat="50.23646" lon="4.91145">
        <ele>135</ele>
        <time>2022-04-15T22:47:21Z</time>
      </trkpt>
      <trkpt lat="50.23677" lon="4.91128">
        <ele>132</ele>
        <time>2022-04-15T22:47:37Z</time>
      </trkpt>
      <trkpt lat="50.23708" lon="4.91117">
        <ele>128</ele>
        <time>2022-04-15T22:47:53Z</time>
      </trkpt>
      <trkpt lat="50.2374" lon="4.91095">
        <ele>124</ele>
        <time>2022-04-15T22:48:11Z</time>
      </trkpt>
      <trkpt lat="50.23774" lon="4.91049">
        <ele>116</ele>
        <time>2022-04-15T22:48:33Z</time>
      </trkpt>
      <trkpt lat="50.23781" lon="4.91042">
        <ele>114</ele>
        <time>2022-04-15T22:48:38Z</time>
      </trkpt>
      <trkpt lat="50.23696" lon="4.90938">
        <ele>126</ele>
        <time>2022-04-15T22:49:32Z</time>
      </trkpt>
      <trkpt lat="50.23666" lon="4.90897">
        <ele>134</ele>
        <time>2022-04-15T22:49:52Z</time>
      </trkpt>
      <trkpt lat="50.23647" lon="4.9085">
        <ele>133</ele>
        <time>2022-04-15T22:50:09Z</time>
      </trkpt>
      <trkpt lat="50.23639" lon="4.90835">
        <ele>134</ele>
        <time>2022-04-15T22:50:16Z</time>
      </trkpt>
      <trkpt lat="50.23638" lon="4.90824">
        <ele>133</ele>
        <time>2022-04-15T22:50:19Z</time>
      </trkpt>
      <trkpt lat="50.23582" lon="4.90692">
        <ele>133</ele>
        <time>2022-04-15T22:51:10Z</time>
      </trkpt>
      <trkpt lat="50.2355" lon="4.90666">
        <ele>135</ele>
        <time>2022-04-15T22:51:28Z</time>
      </trkpt>
      <trkpt lat="50.23524" lon="4.90631">
        <ele>137</ele>
        <time>2022-04-15T22:51:45Z</time>
      </trkpt>
      <trkpt lat="50.23516" lon="4.90623">
        <ele>139</ele>
        <time>2022-04-15T22:51:50Z</time>
      </trkpt>
      <trkpt lat="50.23507" lon="4.9062">
        <ele>141</ele>
        <time>2022-04-15T22:51:54Z</time>
      </trkpt>
      <trkpt lat="50.23496" lon="4.90594">
        <ele>141</ele>
        <time>2022-04-15T22:52:04Z</time>
      </trkpt>
      <trkpt lat="50.23478" lon="4.90579">
        <ele>141</ele>
        <time>2022-04-15T22:52:15Z</time>
      </trkpt>
      <trkpt lat="50.23459" lon="4.90569">
        <ele>141</ele>
        <time>2022-04-15T22:52:25Z</time>
      </trkpt>
      <trkpt lat="50.23426" lon="4.90583">
        <ele>146</ele>
        <time>2022-04-15T22:52:42Z</time>
      </trkpt>
      <trkpt lat="50.23413" lon="4.90579">
        <ele>147</ele>
        <time>2022-04-15T22:52:48Z</time>
      </trkpt>
      <trkpt lat="50.23404" lon="4.90532">
        <ele>146</ele>
        <time>2022-04-15T22:53:04Z</time>
      </trkpt>
      <trkpt lat="50.23396" lon="4.90476">
        <ele>143</ele>
        <time>2022-04-15T22:53:22Z</time>
      </trkpt>
      <trkpt lat="50.23337" lon="4.90421">
        <ele>152</ele>
        <time>2022-04-15T22:53:57Z</time>
      </trkpt>
      <trkpt lat="50.23314" lon="4.90435">
        <ele>154</ele>
        <time>2022-04-15T22:54:09Z</time>
      </trkpt>
      <trkpt lat="50.23305" lon="4.90416">
        <ele>154</ele>
        <time>2022-04-15T22:54:17Z</time>
      </trkpt>
      <trkpt lat="50.23291" lon="4.90392">
        <ele>152</ele>
        <time>2022-04-15T22:54:27Z</time>
      </trkpt>
      <trkpt lat="50.23282" lon="4.90381">
        <ele>152</ele>
        <time>2022-04-15T22:54:33Z</time>
      </trkpt>
      <trkpt lat="50.23263" lon="4.90368">
        <ele>152</ele>
        <time>2022-04-15T22:54:43Z</time>
      </trkpt>
      <trkpt lat="50.23225" lon="4.90331">
        <ele>156</ele>
        <time>2022-04-15T22:55:06Z</time>
      </trkpt>
      <trkpt lat="50.23222" lon="4.90325">
        <ele>155</ele>
        <time>2022-04-15T22:55:08Z</time>
      </trkpt>
      <trkpt lat="50.23208" lon="4.90305">
        <ele>156</ele>
        <time>2022-04-15T22:55:18Z</time>
      </trkpt>
      <trkpt lat="50.23183" lon="4.90254">
        <ele>155</ele>
        <time>2022-04-15T22:55:38Z</time>
      </trkpt>
      <trkpt lat="50.23142" lon="4.90152">
        <ele>144</ele>
        <time>2022-04-15T22:56:17Z</time>
      </trkpt>
      <trkpt lat="50.2312" lon="4.90091">
        <ele>139</ele>
        <time>2022-04-15T22:56:39Z</time>
      </trkpt>
      <trkpt lat="50.23113" lon="4.90064">
        <ele>134</ele>
        <time>2022-04-15T22:56:48Z</time>
      </trkpt>
      <trkpt lat="50.23109" lon="4.90045">
        <ele>131</ele>
        <time>2022-04-15T22:56:55Z</time>
      </trkpt>
      <trkpt lat="50.23106" lon="4.90017">
        <ele>124</ele>
        <time>2022-04-15T22:57:04Z</time>
      </trkpt>
      <trkpt lat="50.2309" lon="4.90035">
        <ele>132</ele>
        <time>2022-04-15T22:57:14Z</time>
      </trkpt>
      <trkpt lat="50.23075" lon="4.90042">
        <ele>135</ele>
        <time>2022-04-15T22:57:22Z</time>
      </trkpt>
      <trkpt lat="50.23043" lon="4.9003">
        <ele>131</ele>
        <time>2022-04-15T22:57:38Z</time>
      </trkpt>
      <trkpt lat="50.23015" lon="4.90038">
        <ele>133</ele>
        <time>2022-04-15T22:57:52Z</time>
      </trkpt>
      <trkpt lat="50.23007" lon="4.90046">
        <ele>135</ele>
        <time>2022-04-15T22:57:57Z</time>
      </trkpt>
      <trkpt lat="50.23027" lon="4.90094">
        <ele>149</ele>
        <time>2022-04-15T22:58:15Z</time>
      </trkpt>
      <trkpt lat="50.23046" lon="4.90124">
        <ele>155</ele>
        <time>2022-04-15T22:58:29Z</time>
      </trkpt>
      <trkpt lat="50.23056" lon="4.9015">
        <ele>160</ele>
        <time>2022-04-15T22:58:39Z</time>
      </trkpt>
      <trkpt lat="50.23058" lon="4.90172">
        <ele>164</ele>
        <time>2022-04-15T22:58:46Z</time>
      </trkpt>
      <trkpt lat="50.23036" lon="4.90188">
        <ele>167</ele>
        <time>2022-04-15T22:58:58Z</time>
      </trkpt>
      <trkpt lat="50.23016" lon="4.90197">
        <ele>169</ele>
        <time>2022-04-15T22:59:08Z</time>
      </trkpt>
      <trkpt lat="50.23007" lon="4.90204">
        <ele>171</ele>
        <time>2022-04-15T22:59:13Z</time>
      </trkpt>
      <trkpt lat="50.23004" lon="4.90245">
        <ele>176</ele>
        <time>2022-04-15T22:59:27Z</time>
      </trkpt>
      <trkpt lat="50.23026" lon="4.903">
        <ele>181</ele>
        <time>2022-04-15T22:59:47Z</time>
      </trkpt>
      <trkpt lat="50.2303" lon="4.90332">
        <ele>183</ele>
        <time>2022-04-15T22:59:58Z</time>
      </trkpt>
      <trkpt lat="50.23029" lon="4.90372">
        <ele>182</ele>
        <time>2022-04-15T23:00:11Z</time>
      </trkpt>
      <trkpt lat="50.23022" lon="4.90366">
        <ele>182</ele>
        <time>2022-04-15T23:00:15Z</time>
      </trkpt>
      <trkpt lat="50.23002" lon="4.90359">
        <ele>182</ele>
        <time>2022-04-15T23:00:25Z</time>
      </trkpt>
      <trkpt lat="50.22993" lon="4.9034">
        <ele>182</ele>
        <time>2022-04-15T23:00:32Z</time>
      </trkpt>
      <trkpt lat="50.22972" lon="4.90335">
        <ele>180</ele>
        <time>2022-04-15T23:00:43Z</time>
      </trkpt>
      <trkpt lat="50.22944" lon="4.90376">
        <ele>171</ele>
        <time>2022-04-15T23:01:02Z</time>
      </trkpt>
      <trkpt lat="50.22927" lon="4.90367">
        <ele>169</ele>
        <time>2022-04-15T23:01:11Z</time>
      </trkpt>
      <trkpt lat="50.22907" lon="4.90376">
        <ele>162</ele>
        <time>2022-04-15T23:01:22Z</time>
      </trkpt>
      <trkpt lat="50.229" lon="4.90365">
        <ele>162</ele>
        <time>2022-04-15T23:01:27Z</time>
      </trkpt>
      <trkpt lat="50.22903" lon="4.90358">
        <ele>165</ele>
        <time>2022-04-15T23:01:29Z</time>
      </trkpt>
      <trkpt lat="50.22909" lon="4.90332">
        <ele>172</ele>
        <time>2022-04-15T23:01:38Z</time>
      </trkpt>
      <trkpt lat="50.22889" lon="4.90311">
        <ele>165</ele>
        <time>2022-04-15T23:01:50Z</time>
      </trkpt>
      <trkpt lat="50.22876" lon="4.90306">
        <ele>162</ele>
        <time>2022-04-15T23:01:57Z</time>
      </trkpt>
      <trkpt lat="50.22834" lon="4.90275">
        <ele>150</ele>
        <time>2022-04-15T23:02:20Z</time>
      </trkpt>
      <trkpt lat="50.2285" lon="4.90253">
        <ele>154</ele>
        <time>2022-04-15T23:02:31Z</time>
      </trkpt>
      <trkpt lat="50.22867" lon="4.90208">
        <ele>148</ele>
        <time>2022-04-15T23:02:48Z</time>
      </trkpt>
      <trkpt lat="50.22856" lon="4.90207">
        <ele>144</ele>
        <time>2022-04-15T23:02:53Z</time>
      </trkpt>
      <trkpt lat="50.22851" lon="4.90213">
        <ele>145</ele>
        <time>2022-04-15T23:02:56Z</time>
      </trkpt>
      <trkpt lat="50.22846" lon="4.90225">
        <ele>146</ele>
        <time>2022-04-15T23:03:01Z</time>
      </trkpt>
      <trkpt lat="50.22837" lon="4.90234">
        <ele>147</ele>
        <time>2022-04-15T23:03:06Z</time>
      </trkpt>
      <trkpt lat="50.22823" lon="4.9024">
        <ele>145</ele>
        <time>2022-04-15T23:03:13Z</time>
      </trkpt>
      <trkpt lat="50.22803" lon="4.90242">
        <ele>142</ele>
        <time>2022-04-15T23:03:23Z</time>
      </trkpt>
      <trkpt lat="50.22802" lon="4.90237">
        <ele>141</ele>
        <time>2022-04-15T23:03:25Z</time>
      </trkpt>
      <trkpt lat="50.22828" lon="4.90203">
        <ele>136</ele>
        <time>2022-04-15T23:03:42Z</time>
      </trkpt>
      <trkpt lat="50.22846" lon="4.90165">
        <ele>130</ele>
        <time>2022-04-15T23:03:57Z</time>
      </trkpt>
      <trkpt lat="50.22835" lon="4.90163">
        <ele>127</ele>
        <time>2022-04-15T23:04:03Z</time>
      </trkpt>
      <trkpt lat="50.22806" lon="4.90171">
        <ele>123</ele>
        <time>2022-04-15T23:04:17Z</time>
      </trkpt>
      <trkpt lat="50.22818" lon="4.90145">
        <ele>119</ele>
        <time>2022-04-15T23:04:28Z</time>
      </trkpt>
      <trkpt lat="50.2288" lon="4.9004">
        <ele>110</ele>
        <time>2022-04-15T23:05:13Z</time>
      </trkpt>
      <trkpt lat="50.22882" lon="4.90038">
        <ele>110</ele>
        <time>2022-04-15T23:05:15Z</time>
      </trkpt>
      <trkpt lat="50.2288" lon="4.9004">
        <ele>110</ele>
        <time>2022-04-15T23:05:16Z</time>
      </trkpt>
      <trkpt lat="50.22843" lon="4.90035">
        <ele>103</ele>
        <time>2022-04-15T23:05:34Z</time>
      </trkpt>
      <trkpt lat="50.22805" lon="4.90037">
        <ele>101</ele>
        <time>2022-04-15T23:05:53Z</time>
      </trkpt>
      <trkpt lat="50.22772" lon="4.90057">
        <ele>101</ele>
        <time>2022-04-15T23:06:11Z</time>
      </trkpt>
      <trkpt lat="50.22731" lon="4.90092">
        <ele>101</ele>
        <time>2022-04-15T23:06:35Z</time>
      </trkpt>
      <trkpt lat="50.22668" lon="4.90167">
        <ele>103</ele>
        <time>2022-04-15T23:07:14Z</time>
      </trkpt>
      <trkpt lat="50.2265" lon="4.90181">
        <ele>105</ele>
        <time>2022-04-15T23:07:24Z</time>
      </trkpt>
      <trkpt lat="50.22634" lon="4.90228">
        <ele>109</ele>
        <time>2022-04-15T23:07:41Z</time>
      </trkpt>
      <trkpt lat="50.22586" lon="4.90318">
        <ele>103</ele>
        <time>2022-04-15T23:08:19Z</time>
      </trkpt>
      <trkpt lat="50.22579" lon="4.90331">
        <ele>102</ele>
        <time>2022-04-15T23:08:24Z</time>
      </trkpt>
      <trkpt lat="50.22565" lon="4.90362">
        <ele>101</ele>
        <time>2022-04-15T23:08:36Z</time>
      </trkpt>
      <trkpt lat="50.2254" lon="4.90427">
        <ele>102</ele>
        <time>2022-04-15T23:09:01Z</time>
      </trkpt>
      <trkpt lat="50.22539" lon="4.90441">
        <ele>104</ele>
        <time>2022-04-15T23:09:05Z</time>
      </trkpt>
      <trkpt lat="50.22543" lon="4.90455">
        <ele>104</ele>
        <time>2022-04-15T23:09:10Z</time>
      </trkpt>
      <trkpt lat="50.22533" lon="4.90453">
        <ele>105</ele>
        <time>2022-04-15T23:09:15Z</time>
      </trkpt>
      <trkpt lat="50.22528" lon="4.90417">
        <ele>102</ele>
        <time>2022-04-15T23:09:27Z</time>
      </trkpt>
      <trkpt lat="50.22537" lon="4.90404">
        <ele>102</ele>
        <time>2022-04-15T23:09:33Z</time>
      </trkpt>
      <trkpt lat="50.22534" lon="4.90395">
        <ele>102</ele>
        <time>2022-04-15T23:09:36Z</time>
      </trkpt>
      <trkpt lat="50.22523" lon="4.90374">
        <ele>102</ele>
        <time>2022-04-15T23:09:45Z</time>
      </trkpt>
      <trkpt lat="50.22518" lon="4.90357">
        <ele>102</ele>
        <time>2022-04-15T23:09:51Z</time>
      </trkpt>
      <trkpt lat="50.22513" lon="4.90332">
        <ele>101</ele>
        <time>2022-04-15T23:09:59Z</time>
      </trkpt>
      <trkpt lat="50.22512" lon="4.903">
        <ele>106</ele>
        <time>2022-04-15T23:10:10Z</time>
      </trkpt>
      <trkpt lat="50.22516" lon="4.90273">
        <ele>110</ele>
        <time>2022-04-15T23:10:18Z</time>
      </trkpt>
      <trkpt lat="50.22511" lon="4.90076">
        <ele>173</ele>
        <time>2022-04-15T23:11:22Z</time>
      </trkpt>
      <trkpt lat="50.22535" lon="4.90015">
        <ele>175</ele>
        <time>2022-04-15T23:11:45Z</time>
      </trkpt>
      <trkpt lat="50.22547" lon="4.89999">
        <ele>173</ele>
        <time>2022-04-15T23:11:52Z</time>
      </trkpt>
      <trkpt lat="50.22611" lon="4.8983">
        <ele>196</ele>
        <time>2022-04-15T23:12:55Z</time>
      </trkpt>
      <trkpt lat="50.22636" lon="4.89789">
        <ele>198</ele>
        <time>2022-04-15T23:13:13Z</time>
      </trkpt>
      <trkpt lat="50.22665" lon="4.89765">
        <ele>197</ele>
        <time>2022-04-15T23:13:30Z</time>
      </trkpt>
      <trkpt lat="50.22695" lon="4.89755">
        <ele>192</ele>
        <time>2022-04-15T23:13:45Z</time>
      </trkpt>
      <trkpt lat="50.22708" lon="4.89731">
        <ele>195</ele>
        <time>2022-04-15T23:13:55Z</time>
      </trkpt>
      <trkpt lat="50.22719" lon="4.89717">
        <ele>195</ele>
        <time>2022-04-15T23:14:02Z</time>
      </trkpt>
      <trkpt lat="50.2274" lon="4.89709">
        <ele>192</ele>
        <time>2022-04-15T23:14:13Z</time>
      </trkpt>
      <trkpt lat="50.22756" lon="4.89709">
        <ele>188</ele>
        <time>2022-04-15T23:14:21Z</time>
      </trkpt>
      <trkpt lat="50.22768" lon="4.897">
        <ele>188</ele>
        <time>2022-04-15T23:14:28Z</time>
      </trkpt>
      <trkpt lat="50.22815" lon="4.89637">
        <ele>196</ele>
        <time>2022-04-15T23:14:59Z</time>
      </trkpt>
      <trkpt lat="50.22867" lon="4.89591">
        <ele>203</ele>
        <time>2022-04-15T23:15:29Z</time>
      </trkpt>
      <trkpt lat="50.22897" lon="4.89572">
        <ele>202</ele>
        <time>2022-04-15T23:15:45Z</time>
      </trkpt>
      <trkpt lat="50.22925" lon="4.89573">
        <ele>199</ele>
        <time>2022-04-15T23:15:59Z</time>
      </trkpt>
      <trkpt lat="50.22943" lon="4.89567">
        <ele>197</ele>
        <time>2022-04-15T23:16:08Z</time>
      </trkpt>
      <trkpt lat="50.22948" lon="4.89578">
        <ele>195</ele>
        <time>2022-04-15T23:16:12Z</time>
      </trkpt>
      <trkpt lat="50.22965" lon="4.89578">
        <ele>193</ele>
        <time>2022-04-15T23:16:21Z</time>
      </trkpt>
      <trkpt lat="50.22979" lon="4.89556">
        <ele>194</ele>
        <time>2022-04-15T23:16:31Z</time>
      </trkpt>
      <trkpt lat="50.23001" lon="4.89503">
        <ele>200</ele>
        <time>2022-04-15T23:16:51Z</time>
      </trkpt>
      <trkpt lat="50.22952" lon="4.89518">
        <ele>201</ele>
        <time>2022-04-15T23:17:16Z</time>
      </trkpt>
      <trkpt lat="50.22919" lon="4.89507">
        <ele>205</ele>
        <time>2022-04-15T23:17:33Z</time>
      </trkpt>
      <trkpt lat="50.22915" lon="4.89481">
        <ele>205</ele>
        <time>2022-04-15T23:17:42Z</time>
      </trkpt>
      <trkpt lat="50.22894" lon="4.89458">
        <ele>207</ele>
        <time>2022-04-15T23:17:54Z</time>
      </trkpt>
      <trkpt lat="50.22877" lon="4.89427">
        <ele>208</ele>
        <time>2022-04-15T23:18:07Z</time>
      </trkpt>
      <trkpt lat="50.2286" lon="4.8943">
        <ele>211</ele>
        <time>2022-04-15T23:18:16Z</time>
      </trkpt>
      <trkpt lat="50.22844" lon="4.89444">
        <ele>214</ele>
        <time>2022-04-15T23:18:25Z</time>
      </trkpt>
      <trkpt lat="50.22792" lon="4.89477">
        <ele>219</ele>
        <time>2022-04-15T23:18:53Z</time>
      </trkpt>
      <trkpt lat="50.22757" lon="4.89484">
        <ele>220</ele>
        <time>2022-04-15T23:19:11Z</time>
      </trkpt>
      <trkpt lat="50.22747" lon="4.89485">
        <ele>220</ele>
        <time>2022-04-15T23:19:16Z</time>
      </trkpt>
      <trkpt lat="50.22718" lon="4.89472">
        <ele>222</ele>
        <time>2022-04-15T23:19:31Z</time>
      </trkpt>
      <trkpt lat="50.2265" lon="4.89432">
        <ele>220</ele>
        <time>2022-04-15T23:20:07Z</time>
      </trkpt>
      <trkpt lat="50.22625" lon="4.89432">
        <ele>216</ele>
        <time>2022-04-15T23:20:20Z</time>
      </trkpt>
      <trkpt lat="50.22589" lon="4.89443">
        <ele>214</ele>
        <time>2022-04-15T23:20:38Z</time>
      </trkpt>
      <trkpt lat="50.22512" lon="4.89504">
        <ele>215</ele>
        <time>2022-04-15T23:21:22Z</time>
      </trkpt>
      <trkpt lat="50.22479" lon="4.89517">
        <ele>213</ele>
        <time>2022-04-15T23:21:39Z</time>
      </trkpt>
      <trkpt lat="50.22487" lon="4.89491">
        <ele>211</ele>
        <time>2022-04-15T23:21:48Z</time>
      </trkpt>
      <trkpt lat="50.2247" lon="4.89492">
        <ele>210</ele>
        <time>2022-04-15T23:21:56Z</time>
      </trkpt>
      <trkpt lat="50.22461" lon="4.89483">
        <ele>208</ele>
        <time>2022-04-15T23:22:02Z</time>
      </trkpt>
      <trkpt lat="50.22436" lon="4.89441">
        <ele>202</ele>
        <time>2022-04-15T23:22:20Z</time>
      </trkpt>
      <trkpt lat="50.22416" lon="4.89431">
        <ele>201</ele>
        <time>2022-04-15T23:22:31Z</time>
      </trkpt>
      <trkpt lat="50.22362" lon="4.89429">
        <ele>184</ele>
        <time>2022-04-15T23:22:58Z</time>
      </trkpt>
      <trkpt lat="50.2235" lon="4.89433">
        <ele>182</ele>
        <time>2022-04-15T23:23:04Z</time>
      </trkpt>
      <trkpt lat="50.22329" lon="4.89477">
        <ele>193</ele>
        <time>2022-04-15T23:23:21Z</time>
      </trkpt>
      <trkpt lat="50.22325" lon="4.8952">
        <ele>203</ele>
        <time>2022-04-15T23:23:35Z</time>
      </trkpt>
      <trkpt lat="50.22273" lon="4.89567">
        <ele>203</ele>
        <time>2022-04-15T23:24:05Z</time>
      </trkpt>
      <trkpt lat="50.22191" lon="4.89549">
        <ele>201</ele>
        <time>2022-04-15T23:24:47Z</time>
      </trkpt>
      <trkpt lat="50.22096" lon="4.89517">
        <ele>204</ele>
        <time>2022-04-15T23:25:35Z</time>
      </trkpt>
      <trkpt lat="50.2207" lon="4.89514">
        <ele>205</ele>
        <time>2022-04-15T23:25:48Z</time>
      </trkpt>
      <trkpt lat="50.22044" lon="4.89516">
        <ele>205</ele>
        <time>2022-04-15T23:26:01Z</time>
      </trkpt>
      <trkpt lat="50.22029" lon="4.89491">
        <ele>205</ele>
        <time>2022-04-15T23:26:12Z</time>
      </trkpt>
      <trkpt lat="50.21996" lon="4.89482">
        <ele>204</ele>
        <time>2022-04-15T23:26:29Z</time>
      </trkpt>
      <trkpt lat="50.21985" lon="4.89468">
        <ele>203</ele>
        <time>2022-04-15T23:26:36Z</time>
      </trkpt>
      <trkpt lat="50.21983" lon="4.89437">
        <ele>201</ele>
        <time>2022-04-15T23:26:46Z</time>
      </trkpt>
      <trkpt lat="50.21956" lon="4.8941">
        <ele>199</ele>
        <time>2022-04-15T23:27:02Z</time>
      </trkpt>
      <trkpt lat="50.21953" lon="4.89405">
        <ele>198</ele>
        <time>2022-04-15T23:27:04Z</time>
      </trkpt>
      <trkpt lat="50.21939" lon="4.89374">
        <ele>193</ele>
        <time>2022-04-15T23:27:17Z</time>
      </trkpt>
      <trkpt lat="50.21933" lon="4.89347">
        <ele>189</ele>
        <time>2022-04-15T23:27:26Z</time>
      </trkpt>
      <trkpt lat="50.21932" lon="4.89349">
        <ele>189</ele>
        <time>2022-04-15T23:27:27Z</time>
      </trkpt>
      <trkpt lat="50.21908" lon="4.89303">
        <ele>181</ele>
        <time>2022-04-15T23:27:46Z</time>
      </trkpt>
      <trkpt lat="50.21925" lon="4.89292">
        <ele>174</ele>
        <time>2022-04-15T23:27:55Z</time>
      </trkpt>
      <trkpt lat="50.21921" lon="4.89284">
        <ele>173</ele>
        <time>2022-04-15T23:27:58Z</time>
      </trkpt>
      <trkpt lat="50.21929" lon="4.89264">
        <ele>165</ele>
        <time>2022-04-15T23:28:06Z</time>
      </trkpt>
      <trkpt lat="50.21921" lon="4.89284">
        <ele>173</ele>
        <time>2022-04-15T23:28:13Z</time>
      </trkpt>
      <trkpt lat="50.21925" lon="4.89292">
        <ele>174</ele>
        <time>2022-04-15T23:28:16Z</time>
      </trkpt>
      <trkpt lat="50.21908" lon="4.89303">
        <ele>181</ele>
        <time>2022-04-15T23:28:26Z</time>
      </trkpt>
      <trkpt lat="50.21902" lon="4.89246">
        <ele>165</ele>
        <time>2022-04-15T23:28:44Z</time>
      </trkpt>
      <trkpt lat="50.21915" lon="4.89201">
        <ele>146</ele>
        <time>2022-04-15T23:29:00Z</time>
      </trkpt>
      <trkpt lat="50.21937" lon="4.89162">
        <ele>128</ele>
        <time>2022-04-15T23:29:17Z</time>
      </trkpt>
      <trkpt lat="50.21956" lon="4.89145">
        <ele>120</ele>
        <time>2022-04-15T23:29:27Z</time>
      </trkpt>
      <trkpt lat="50.21969" lon="4.89157">
        <ele>120</ele>
        <time>2022-04-15T23:29:35Z</time>
      </trkpt>
      <trkpt lat="50.22001" lon="4.89152">
        <ele>113</ele>
        <time>2022-04-15T23:29:51Z</time>
      </trkpt>
      <trkpt lat="50.22023" lon="4.89151">
        <ele>111</ele>
        <time>2022-04-15T23:30:02Z</time>
      </trkpt>
      <trkpt lat="50.22063" lon="4.89197">
        <ele>117</ele>
        <time>2022-04-15T23:30:27Z</time>
      </trkpt>
      <trkpt lat="50.2212" lon="4.89239">
        <ele>118</ele>
        <time>2022-04-15T23:30:59Z</time>
      </trkpt>
      <trkpt lat="50.22229" lon="4.89304">
        <ele>115</ele>
        <time>2022-04-15T23:31:57Z</time>
      </trkpt>
      <trkpt lat="50.2229" lon="4.89318">
        <ele>113</ele>
        <time>2022-04-15T23:32:28Z</time>
      </trkpt>
      <trkpt lat="50.22293" lon="4.89317">
        <ele>113</ele>
        <time>2022-04-15T23:32:29Z</time>
      </trkpt>
      <trkpt lat="50.22321" lon="4.89313">
        <ele>111</ele>
        <time>2022-04-15T23:32:43Z</time>
      </trkpt>
      <trkpt lat="50.22357" lon="4.89301">
        <ele>115</ele>
        <time>2022-04-15T23:33:02Z</time>
      </trkpt>
      <trkpt lat="50.22401" lon="4.89292">
        <ele>124</ele>
        <time>2022-04-15T23:33:24Z</time>
      </trkpt>
      <trkpt lat="50.22424" lon="4.89281">
        <ele>123</ele>
        <time>2022-04-15T23:33:36Z</time>
      </trkpt>
      <trkpt lat="50.22473" lon="4.89235">
        <ele>111</ele>
        <time>2022-04-15T23:34:05Z</time>
      </trkpt>
      <trkpt lat="50.22485" lon="4.89206">
        <ele>107</ele>
        <time>2022-04-15T23:34:16Z</time>
      </trkpt>
      <trkpt lat="50.22493" lon="4.89195">
        <ele>106</ele>
        <time>2022-04-15T23:34:21Z</time>
      </trkpt>
      <trkpt lat="50.22506" lon="4.89202">
        <ele>109</ele>
        <time>2022-04-15T23:34:28Z</time>
      </trkpt>
      <trkpt lat="50.22522" lon="4.89197">
        <ele>111</ele>
        <time>2022-04-15T23:34:36Z</time>
      </trkpt>
      <trkpt lat="50.22573" lon="4.89147">
        <ele>105</ele>
        <time>2022-04-15T23:35:06Z</time>
      </trkpt>
      <trkpt lat="50.22608" lon="4.89135">
        <ele>109</ele>
        <time>2022-04-15T23:35:24Z</time>
      </trkpt>
      <trkpt lat="50.22615" lon="4.89119">
        <ele>106</ele>
        <time>2022-04-15T23:35:30Z</time>
      </trkpt>
      <trkpt lat="50.22652" lon="4.89097">
        <ele>106</ele>
        <time>2022-04-15T23:35:50Z</time>
      </trkpt>
      <trkpt lat="50.22662" lon="4.89099">
        <ele>108</ele>
        <time>2022-04-15T23:35:55Z</time>
      </trkpt>
      <trkpt lat="50.227" lon="4.89071">
        <ele>108</ele>
        <time>2022-04-15T23:36:16Z</time>
      </trkpt>
      <trkpt lat="50.22729" lon="4.89063">
        <ele>111</ele>
        <time>2022-04-15T23:36:31Z</time>
      </trkpt>
      <trkpt lat="50.22767" lon="4.89032">
        <ele>111</ele>
        <time>2022-04-15T23:36:52Z</time>
      </trkpt>
      <trkpt lat="50.22789" lon="4.89019">
        <ele>111</ele>
        <time>2022-04-15T23:37:04Z</time>
      </trkpt>
      <trkpt lat="50.2297" lon="4.88942">
        <ele>110</ele>
        <time>2022-04-15T23:38:38Z</time>
      </trkpt>
      <trkpt lat="50.22987" lon="4.88933">
        <ele>106</ele>
        <time>2022-04-15T23:38:47Z</time>
      </trkpt>
      <trkpt lat="50.23006" lon="4.88942">
        <ele>110</ele>
        <time>2022-04-15T23:38:57Z</time>
      </trkpt>
      <trkpt lat="50.23025" lon="4.88957">
        <ele>116</ele>
        <time>2022-04-15T23:39:08Z</time>
      </trkpt>
      <trkpt lat="50.23038" lon="4.88962">
        <ele>119</ele>
        <time>2022-04-15T23:39:14Z</time>
      </trkpt>
      <trkpt lat="50.23058" lon="4.88964">
        <ele>121</ele>
        <time>2022-04-15T23:39:24Z</time>
      </trkpt>
      <trkpt lat="50.23081" lon="4.88954">
        <ele>118</ele>
        <time>2022-04-15T23:39:36Z</time>
      </trkpt>
      <trkpt lat="50.23095" lon="4.88925">
        <ele>106</ele>
        <time>2022-04-15T23:39:48Z</time>
      </trkpt>
      <trkpt lat="50.23097" lon="4.88908">
        <ele>102</ele>
        <time>2022-04-15T23:39:53Z</time>
      </trkpt>
      <trkpt lat="50.23109" lon="4.88901">
        <ele>103</ele>
        <time>2022-04-15T23:40:00Z</time>
      </trkpt>
      <trkpt lat="50.2322" lon="4.88889">
        <ele>109</ele>
        <time>2022-04-15T23:40:56Z</time>
      </trkpt>
      <trkpt lat="50.23321" lon="4.8891">
        <ele>105</ele>
        <time>2022-04-15T23:41:47Z</time>
      </trkpt>
      <trkpt lat="50.23402" lon="4.88961">
        <ele>108</ele>
        <time>2022-04-15T23:42:30Z</time>
      </trkpt>
      <trkpt lat="50.2354" lon="4.89015">
        <ele>102</ele>
        <time>2022-04-15T23:43:41Z</time>
      </trkpt>
      <trkpt lat="50.23572" lon="4.89019">
        <ele>99</ele>
        <time>2022-04-15T23:43:57Z</time>
      </trkpt>
      <trkpt lat="50.23654" lon="4.89064">
        <ele>95</ele>
        <time>2022-04-15T23:44:41Z</time>
      </trkpt>
      <trkpt lat="50.2365" lon="4.8908">
        <ele>97</ele>
        <time>2022-04-15T23:44:46Z</time>
      </trkpt>
      <trkpt lat="50.2363" lon="4.8913">
        <ele>106</ele>
        <time>2022-04-15T23:45:05Z</time>
      </trkpt>
      <trkpt lat="50.23645" lon="4.89158">
        <ele>106</ele>
        <time>2022-04-15T23:45:17Z</time>
      </trkpt>
      <trkpt lat="50.23666" lon="4.8919">
        <ele>104</ele>
        <time>2022-04-15T23:45:32Z</time>
      </trkpt>
      <trkpt lat="50.23702" lon="4.89118">
        <ele>95</ele>
        <time>2022-04-15T23:46:01Z</time>
      </trkpt>
      <trkpt lat="50.23729" lon="4.89074">
        <ele>93</ele>
        <time>2022-04-15T23:46:20Z</time>
      </trkpt>
      <trkpt lat="50.23735" lon="4.89068">
        <ele>93</ele>
        <time>2022-04-15T23:46:24Z</time>
      </trkpt>
      <trkpt lat="50.23744" lon="4.8907">
        <ele>92</ele>
        <time>2022-04-15T23:46:29Z</time>
      </trkpt>
      <trkpt lat="50.23757" lon="4.89077">
        <ele>92</ele>
        <time>2022-04-15T23:46:35Z</time>
      </trkpt>
      <trkpt lat="50.23816" lon="4.89124">
        <ele>94</ele>
        <time>2022-04-15T23:47:09Z</time>
      </trkpt>
      <trkpt lat="50.23839" lon="4.89147">
        <ele>94</ele>
        <time>2022-04-15T23:47:22Z</time>
      </trkpt>
      <trkpt lat="50.23849" lon="4.89151">
        <ele>94</ele>
        <time>2022-04-15T23:47:27Z</time>
      </trkpt>
      <trkpt lat="50.23872" lon="4.89176">
        <ele>94</ele>
        <time>2022-04-15T23:47:41Z</time>
      </trkpt>
      <trkpt lat="50.23908" lon="4.89222">
        <ele>94</ele>
        <time>2022-04-15T23:48:05Z</time>
      </trkpt>
      <trkpt lat="50.23941" lon="4.89246">
        <ele>93</ele>
        <time>2022-04-15T23:48:23Z</time>
      </trkpt>
      <trkpt lat="50.23968" lon="4.89274">
        <ele>92</ele>
        <time>2022-04-15T23:48:39Z</time>
      </trkpt>
      <trkpt lat="50.23983" lon="4.893">
        <ele>92</ele>
        <time>2022-04-15T23:48:50Z</time>
      </trkpt>
      <trkpt lat="50.23993" lon="4.8931">
        <ele>91</ele>
        <time>2022-04-15T23:48:56Z</time>
      </trkpt>
      <trkpt lat="50.24013" lon="4.8933">
        <ele>91</ele>
        <time>2022-04-15T23:49:08Z</time>
      </trkpt>
      <trkpt lat="50.24049" lon="4.89368">
        <ele>92</ele>
        <time>2022-04-15T23:49:30Z</time>
      </trkpt>
      <trkpt lat="50.24087" lon="4.89444">
        <ele>96</ele>
        <time>2022-04-15T23:50:01Z</time>
      </trkpt>
      <trkpt lat="50.24102" lon="4.89469">
        <ele>96</ele>
        <time>2022-04-15T23:50:12Z</time>
      </trkpt>
      <trkpt lat="50.24123" lon="4.89495">
        <ele>97</ele>
        <time>2022-04-15T23:50:25Z</time>
      </trkpt>
      <trkpt lat="50.2414" lon="4.89537">
        <ele>98</ele>
        <time>2022-04-15T23:50:41Z</time>
      </trkpt>
      <trkpt lat="50.24157" lon="4.89602">
        <ele>97</ele>
        <time>2022-04-15T23:51:04Z</time>
      </trkpt>
      <trkpt lat="50.24163" lon="4.89642">
        <ele>97</ele>
        <time>2022-04-15T23:51:17Z</time>
      </trkpt>
      <trkpt lat="50.24169" lon="4.89701">
        <ele>96</ele>
        <time>2022-04-15T23:51:36Z</time>
      </trkpt>
      <trkpt lat="50.24171" lon="4.89748">
        <ele>96</ele>
        <time>2022-04-15T23:51:51Z</time>
      </trkpt>
      <trkpt lat="50.24166" lon="4.89798">
        <ele>94</ele>
        <time>2022-04-15T23:52:07Z</time>
      </trkpt>
      <trkpt lat="50.24164" lon="4.89802">
        <ele>94</ele>
        <time>2022-04-15T23:52:09Z</time>
      </trkpt>
      <trkpt lat="50.24164" lon="4.89811">
        <ele>94</ele>
        <time>2022-04-15T23:52:12Z</time>
      </trkpt>
      <trkpt lat="50.24149" lon="4.89872">
        <ele>93</ele>
        <time>2022-04-15T23:52:32Z</time>
      </trkpt>
      <trkpt lat="50.2414" lon="4.89903">
        <ele>93</ele>
        <time>2022-04-15T23:52:43Z</time>
      </trkpt>
      <trkpt lat="50.24111" lon="4.89971">
        <ele>97</ele>
        <time>2022-04-15T23:53:10Z</time>
      </trkpt>
      <trkpt lat="50.24092" lon="4.90001">
        <ele>94</ele>
        <time>2022-04-15T23:53:23Z</time>
      </trkpt>
      <trkpt lat="50.24088" lon="4.89999">
        <ele>93</ele>
        <time>2022-04-15T23:53:25Z</time>
      </trkpt>
      <trkpt lat="50.2409" lon="4.90017">
        <ele>95</ele>
        <time>2022-04-15T23:53:31Z</time>
      </trkpt>
      <trkpt lat="50.24089" lon="4.90023">
        <ele>95</ele>
        <time>2022-04-15T23:53:33Z</time>
      </trkpt>
      <trkpt lat="50.24058" lon="4.9009">
        <ele>96</ele>
        <time>2022-04-15T23:53:59Z</time>
      </trkpt>
      <trkpt lat="50.23896" lon="4.90604">
        <ele>96</ele>
        <time>2022-04-15T23:57:03Z</time>
      </trkpt>
      <trkpt lat="50.23863" lon="4.90714">
        <ele>95</ele>
        <time>2022-04-15T23:57:42Z</time>
      </trkpt>
      <trkpt lat="50.23859" lon="4.90716">
        <ele>95</ele>
        <time>2022-04-15T23:57:44Z</time>
      </trkpt>
      <trkpt lat="50.23843" lon="4.90707">
        <ele>95</ele>
        <time>2022-04-15T23:57:52Z</time>
      </trkpt>
      <trkpt lat="50.23834" lon="4.90783">
        <ele>95</ele>
        <time>2022-04-15T23:58:17Z</time>
      </trkpt>
      <trkpt lat="50.23855" lon="4.90792">
        <ele>95</ele>
        <time>2022-04-15T23:58:28Z</time>
      </trkpt>
      <trkpt lat="50.23898" lon="4.90817">
        <ele>94</ele>
        <time>2022-04-15T23:58:51Z</time>
      </trkpt>
      <trkpt lat="50.23906" lon="4.90821">
        <ele>94</ele>
        <time>2022-04-15T23:58:55Z</time>
      </trkpt>
      <trkpt lat="50.23911" lon="4.90827">
        <ele>94</ele>
        <time>2022-04-15T23:58:58Z</time>
      </trkpt>
      <trkpt lat="50.23909" lon="4.9088">
        <ele>94</ele>
        <time>2022-04-15T23:59:15Z</time>
      </trkpt>
      <trkpt lat="50.23922" lon="4.90931">
        <ele>92</ele>
        <time>2022-04-15T23:59:33Z</time>
      </trkpt>
      <trkpt lat="50.2393" lon="4.9093">
        <ele>92</ele>
        <time>2022-04-15T23:59:37Z</time>
      </trkpt>
      <trkpt lat="50.23976" lon="4.90922">
        <ele>92</ele>
        <time>2022-04-16T00:00:00Z</time>
      </trkpt>
      <trkpt lat="50.23997" lon="4.90915">
        <ele>92</ele>
        <time>2022-04-16T00:00:11Z</time>
      </trkpt>
      <trkpt lat="50.24003" lon="4.9091">
        <ele>93</ele>
        <time>2022-04-16T00:00:14Z</time>
      </trkpt>
      <trkpt lat="50.24009" lon="4.90912">
        <ele>94</ele>
        <time>2022-04-16T00:00:17Z</time>
      </trkpt>
      <trkpt lat="50.24019" lon="4.90915">
        <ele>96</ele>
        <time>2022-04-16T00:00:22Z</time>
      </trkpt>
      <trkpt lat="50.24025" lon="4.90914">
        <ele>97</ele>
        <time>2022-04-16T00:00:25Z</time>
      </trkpt>
      <trkpt lat="50.24031" lon="4.90884">
        <ele>99</ele>
        <time>2022-04-16T00:00:35Z</time>
      </trkpt>
      <trkpt lat="50.24035" lon="4.90879">
        <ele>100</ele>
        <time>2022-04-16T00:00:38Z</time>
      </trkpt>
      <trkpt lat="50.24045" lon="4.90899">
        <ele>102</ele>
        <time>2022-04-16T00:00:46Z</time>
      </trkpt>
      <trkpt lat="50.24052" lon="4.90933">
        <ele>104</ele>
        <time>2022-04-16T00:00:58Z</time>
      </trkpt>
      <trkpt lat="50.24056" lon="4.90999">
        <ele>106</ele>
        <time>2022-04-16T00:01:19Z</time>
      </trkpt>
      <trkpt lat="50.24061" lon="4.9115">
        <ele>104</ele>
        <time>2022-04-16T00:02:07Z</time>
      </trkpt>
      <trkpt lat="50.24063" lon="4.91188">
        <ele>103</ele>
        <time>2022-04-16T00:02:19Z</time>
      </trkpt>
      <trkpt lat="50.24069" lon="4.91242">
        <ele>101</ele>
        <time>2022-04-16T00:02:37Z</time>
      </trkpt>
      <trkpt lat="50.24072" lon="4.91239">
        <ele>102</ele>
        <time>2022-04-16T00:02:39Z</time>
      </trkpt>
      <trkpt lat="50.24074" lon="4.91245">
        <ele>102</ele>
        <time>2022-04-16T00:02:41Z</time>
      </trkpt>
      <trkpt lat="50.24084" lon="4.91261">
        <ele>103</ele>
        <time>2022-04-16T00:02:48Z</time>
      </trkpt>
      <trkpt lat="50.24084" lon="4.91277">
        <ele>102</ele>
        <time>2022-04-16T00:02:53Z</time>
      </trkpt>
      <trkpt lat="50.24089" lon="4.91283">
        <ele>103</ele>
        <time>2022-04-16T00:02:56Z</time>
      </trkpt>
      <trkpt lat="50.24095" lon="4.91247">
        <ele>108</ele>
        <time>2022-04-16T00:03:08Z</time>
      </trkpt>
      <trkpt lat="50.24099" lon="4.91243">
        <ele>110</ele>
        <time>2022-04-16T00:03:11Z</time>
      </trkpt>
      <trkpt lat="50.24119" lon="4.91239">
        <ele>119</ele>
        <time>2022-04-16T00:03:21Z</time>
      </trkpt>
      <trkpt lat="50.24133" lon="4.9125">
        <ele>124</ele>
        <time>2022-04-16T00:03:29Z</time>
      </trkpt>
      <trkpt lat="50.2414" lon="4.91335">
        <ele>120</ele>
        <time>2022-04-16T00:03:56Z</time>
      </trkpt>
      <trkpt lat="50.24167" lon="4.91472">
        <ele>120</ele>
        <time>2022-04-16T00:04:42Z</time>
      </trkpt>
      <trkpt lat="50.24192" lon="4.91557">
        <ele>123</ele>
        <time>2022-04-16T00:05:12Z</time>
      </trkpt>
      <trkpt lat="50.24232" lon="4.9162">
        <ele>117</ele>
        <time>2022-04-16T00:05:40Z</time>
      </trkpt>
      <trkpt lat="50.24266" lon="4.9166">
        <ele>109</ele>
        <time>2022-04-16T00:06:01Z</time>
      </trkpt>
      <trkpt lat="50.24302" lon="4.91711">
        <ele>101</ele>
        <time>2022-04-16T00:06:26Z</time>
      </trkpt>
      <trkpt lat="50.24348" lon="4.91756">
        <ele>105</ele>
        <time>2022-04-16T00:06:53Z</time>
      </trkpt>
      <trkpt lat="50.24388" lon="4.91771">
        <ele>103</ele>
        <time>2022-04-16T00:07:14Z</time>
      </trkpt>
      <trkpt lat="50.24417" lon="4.91777">
        <ele>103</ele>
        <time>2022-04-16T00:07:28Z</time>
      </trkpt>
      <trkpt lat="50.24456" lon="4.91773">
        <ele>103</ele>
        <time>2022-04-16T00:07:48Z</time>
      </trkpt>
      <trkpt lat="50.24472" lon="4.91762">
        <ele>103</ele>
        <time>2022-04-16T00:07:56Z</time>
      </trkpt>
      <trkpt lat="50.24494" lon="4.91764">
        <ele>103</ele>
        <time>2022-04-16T00:08:07Z</time>
      </trkpt>
      <trkpt lat="50.24508" lon="4.91769">
        <ele>103</ele>
        <time>2022-04-16T00:08:15Z</time>
      </trkpt>
      <trkpt lat="50.24519" lon="4.91763">
        <ele>103</ele>
        <time>2022-04-16T00:08:21Z</time>
      </trkpt>
      <trkpt lat="50.24583" lon="4.91745">
        <ele>101</ele>
        <time>2022-04-16T00:08:53Z</time>
      </trkpt>
      <trkpt lat="50.24605" lon="4.91737">
        <ele>102</ele>
        <time>2022-04-16T00:09:04Z</time>
      </trkpt>
      <trkpt lat="50.24631" lon="4.91723">
        <ele>103</ele>
        <time>2022-04-16T00:09:18Z</time>
      </trkpt>
      <trkpt lat="50.24636" lon="4.91711">
        <ele>104</ele>
        <time>2022-04-16T00:09:23Z</time>
      </trkpt>
      <trkpt lat="50.24628" lon="4.91663">
        <ele>107</ele>
        <time>2022-04-16T00:09:39Z</time>
      </trkpt>
      <trkpt lat="50.24628" lon="4.91654">
        <ele>109</ele>
        <time>2022-04-16T00:09:41Z</time>
      </trkpt>
      <trkpt lat="50.24631" lon="4.91645">
        <ele>110</ele>
        <time>2022-04-16T00:09:45Z</time>
      </trkpt>
      <trkpt lat="50.24635" lon="4.91636">
        <ele>111</ele>
        <time>2022-04-16T00:09:48Z</time>
      </trkpt>
      <trkpt lat="50.24696" lon="4.91579">
        <ele>115</ele>
        <time>2022-04-16T00:10:24Z</time>
      </trkpt>
      <trkpt lat="50.24711" lon="4.91571">
        <ele>115</ele>
        <time>2022-04-16T00:10:32Z</time>
      </trkpt>
      <trkpt lat="50.24741" lon="4.91551">
        <ele>117</ele>
        <time>2022-04-16T00:10:48Z</time>
      </trkpt>
      <trkpt lat="50.24788" lon="4.9153">
        <ele>117</ele>
        <time>2022-04-16T00:11:12Z</time>
      </trkpt>
      <trkpt lat="50.2481" lon="4.91515">
        <ele>117</ele>
        <time>2022-04-16T00:11:24Z</time>
      </trkpt>
      <trkpt lat="50.24832" lon="4.91508">
        <ele>117</ele>
        <time>2022-04-16T00:11:36Z</time>
      </trkpt>
      <trkpt lat="50.24883" lon="4.91506">
        <ele>111</ele>
        <time>2022-04-16T00:12:01Z</time>
      </trkpt>
      <trkpt lat="50.24915" lon="4.91531">
        <ele>104</ele>
        <time>2022-04-16T00:12:19Z</time>
      </trkpt>
      <trkpt lat="50.24964" lon="4.91502">
        <ele>105</ele>
        <time>2022-04-16T00:12:45Z</time>
      </trkpt>
      <trkpt lat="50.2498" lon="4.91481">
        <ele>109</ele>
        <time>2022-04-16T00:12:56Z</time>
      </trkpt>
      <trkpt lat="50.25001" lon="4.91468">
        <ele>111</ele>
        <time>2022-04-16T00:13:07Z</time>
      </trkpt>
      <trkpt lat="50.25019" lon="4.91448">
        <ele>113</ele>
        <time>2022-04-16T00:13:18Z</time>
      </trkpt>
      <trkpt lat="50.25032" lon="4.91444">
        <ele>112</ele>
        <time>2022-04-16T00:13:25Z</time>
      </trkpt>
      <trkpt lat="50.2505" lon="4.91433">
        <ele>112</ele>
        <time>2022-04-16T00:13:34Z</time>
      </trkpt>
      <trkpt lat="50.25077" lon="4.91421">
        <ele>110</ele>
        <time>2022-04-16T00:13:49Z</time>
      </trkpt>
      <trkpt lat="50.25108" lon="4.91389">
        <ele>114</ele>
        <time>2022-04-16T00:14:07Z</time>
      </trkpt>
      <trkpt lat="50.25126" lon="4.91347">
        <ele>121</ele>
        <time>2022-04-16T00:14:23Z</time>
      </trkpt>
      <trkpt lat="50.25152" lon="4.91328">
        <ele>122</ele>
        <time>2022-04-16T00:14:38Z</time>
      </trkpt>
      <trkpt lat="50.25182" lon="4.91294">
        <ele>129</ele>
        <time>2022-04-16T00:14:56Z</time>
      </trkpt>
      <trkpt lat="50.25221" lon="4.91279">
        <ele>131</ele>
        <time>2022-04-16T00:15:16Z</time>
      </trkpt>
      <trkpt lat="50.25276" lon="4.91261">
        <ele>130</ele>
        <time>2022-04-16T00:15:44Z</time>
      </trkpt>
      <trkpt lat="50.25309" lon="4.91243">
        <ele>129</ele>
        <time>2022-04-16T00:16:02Z</time>
      </trkpt>
      <trkpt lat="50.25324" lon="4.91199">
        <ele>136</ele>
        <time>2022-04-16T00:16:18Z</time>
      </trkpt>
      <trkpt lat="50.25335" lon="4.9118">
        <ele>138</ele>
        <time>2022-04-16T00:16:26Z</time>
      </trkpt>
      <trkpt lat="50.25344" lon="4.91175">
        <ele>137</ele>
        <time>2022-04-16T00:16:31Z</time>
      </trkpt>
      <trkpt lat="50.25385" lon="4.91159">
        <ele>133</ele>
        <time>2022-04-16T00:16:52Z</time>
      </trkpt>
      <trkpt lat="50.25414" lon="4.91154">
        <ele>128</ele>
        <time>2022-04-16T00:17:07Z</time>
      </trkpt>
      <trkpt lat="50.25479" lon="4.91154">
        <ele>124</ele>
        <time>2022-04-16T00:17:39Z</time>
      </trkpt>
      <trkpt lat="50.25592" lon="4.91166">
        <ele>118</ele>
        <time>2022-04-16T00:18:36Z</time>
      </trkpt>
      <trkpt lat="50.2564" lon="4.9115">
        <ele>118</ele>
        <time>2022-04-16T00:19:00Z</time>
      </trkpt>
      <trkpt lat="50.25706" lon="4.91116">
        <ele>116</ele>
        <time>2022-04-16T00:19:35Z</time>
      </trkpt>
      <trkpt lat="50.2572" lon="4.91106">
        <ele>115</ele>
        <time>2022-04-16T00:19:43Z</time>
      </trkpt>
      <trkpt lat="50.25728" lon="4.91096">
        <ele>116</ele>
        <time>2022-04-16T00:19:48Z</time>
      </trkpt>
      <trkpt lat="50.25802" lon="4.91062">
        <ele>109</ele>
        <time>2022-04-16T00:20:27Z</time>
      </trkpt>
      <trkpt lat="50.2583" lon="4.91047">
        <ele>105</ele>
        <time>2022-04-16T00:20:41Z</time>
      </trkpt>
      <trkpt lat="50.25837" lon="4.91042">
        <ele>105</ele>
        <time>2022-04-16T00:20:45Z</time>
      </trkpt>
      <trkpt lat="50.25858" lon="4.91019">
        <ele>105</ele>
        <time>2022-04-16T00:20:58Z</time>
      </trkpt>
      <trkpt lat="50.2586" lon="4.91021">
        <ele>105</ele>
        <time>2022-04-16T00:20:59Z</time>
      </trkpt>
      <trkpt lat="50.25875" lon="4.91037">
        <ele>103</ele>
        <time>2022-04-16T00:21:08Z</time>
      </trkpt>
      <trkpt lat="50.25883" lon="4.91043">
        <ele>102</ele>
        <time>2022-04-16T00:21:13Z</time>
      </trkpt>
      <trkpt lat="50.25903" lon="4.9105">
        <ele>100</ele>
        <time>2022-04-16T00:21:23Z</time>
      </trkpt>
      <trkpt lat="50.25914" lon="4.91051">
        <ele>100</ele>
        <time>2022-04-16T00:21:29Z</time>
      </trkpt>
      <trkpt lat="50.25927" lon="4.91048">
        <ele>100</ele>
        <time>2022-04-16T00:21:35Z</time>
      </trkpt>
      <trkpt lat="50.2594" lon="4.91041">
        <ele>100</ele>
        <time>2022-04-16T00:21:42Z</time>
      </trkpt>
      <trkpt lat="50.25995" lon="4.90992">
        <ele>101</ele>
        <time>2022-04-16T00:22:14Z</time>
      </trkpt>
      <trkpt lat="50.26002" lon="4.9099">
        <ele>101</ele>
        <time>2022-04-16T00:22:17Z</time>
      </trkpt>
      <trkpt lat="50.26004" lon="4.90996">
        <ele>101</ele>
        <time>2022-04-16T00:22:19Z</time>
      </trkpt>
      <trkpt lat="50.26009" lon="4.90998">
        <ele>101</ele>
        <time>2022-04-16T00:22:22Z</time>
      </trkpt>
      <trkpt lat="50.26017" lon="4.91032">
        <ele>99</ele>
        <time>2022-04-16T00:22:34Z</time>
      </trkpt>
    </trkseg>
  </trk>
</gpx>